createdAt,value
2023-04-22T00:01:16.680Z,15.38
2023-04-22T00:04:02.625Z,16.10
2023-04-22T00:06:48.076Z,17.05
2023-04-22T00:09:33.726Z,18.40
2023-04-22T00:12:18.829Z,15.55
2023-04-22T00:15:05.171Z,17.83
2023-04-22T00:17:50.750Z,19.60
2023-04-22T00:20:35.737Z,17.33
2023-04-22T00:23:20.641Z,16.33
2023-04-22T00:26:06.055Z,16.48
2023-04-22T00:28:51.338Z,19.42
2023-04-22T00:31:36.385Z,17.73
2023-04-22T00:34:21.563Z,16.92
2023-04-22T00:37:06.520Z,16.45
2023-04-22T00:39:51.898Z,18.75
2023-04-22T00:42:37.650Z,18.50
2023-04-22T00:45:23.002Z,19.10
2023-04-22T00:48:08.370Z,17.55
2023-04-22T00:50:53.742Z,16.98
2023-04-22T00:53:38.718Z,17.88
2023-04-22T00:56:26.330Z,21.27
2023-04-22T00:59:12.531Z,16.42
2023-04-22T01:01:57.967Z,18.50
2023-04-22T01:04:43.429Z,20.35
2023-04-22T01:07:28.585Z,19.00
2023-04-22T01:10:13.720Z,19.73
2023-04-22T01:12:58.687Z,20.75
2023-04-22T01:15:44.181Z,19.13
2023-04-22T01:18:29.748Z,19.60
2023-04-22T01:21:14.754Z,18.70
2023-04-22T01:24:01.563Z,19.23
2023-04-22T01:26:48.216Z,20.83
2023-04-22T01:29:33.817Z,24.02
2023-04-22T01:32:19.057Z,21.70
2023-04-22T01:35:04.432Z,21.15
2023-04-22T01:37:49.398Z,20.90
2023-04-22T01:40:34.723Z,21.13
2023-04-22T01:43:20.166Z,20.08
2023-04-22T01:46:06.405Z,19.52
2023-04-22T01:48:51.725Z,19.95
2023-04-22T01:51:36.752Z,20.75
2023-04-22T01:54:21.861Z,22.95
2023-04-22T01:57:12.028Z,21.27
2023-04-22T01:59:57.248Z,21.42
2023-04-22T02:02:42.666Z,21.52
2023-04-22T02:05:27.921Z,21.17
2023-04-22T02:08:12.809Z,22.40
2023-04-22T02:10:57.657Z,19.33
2023-04-22T02:13:42.650Z,18.55
2023-04-22T02:16:28.029Z,22.67
2023-04-22T02:19:13.485Z,20.85
2023-04-22T02:21:59.040Z,23.88
2023-04-22T02:24:44.190Z,18.77
2023-04-22T02:27:29.777Z,22.25
2023-04-22T02:30:15.047Z,19.85
2023-04-22T02:32:59.871Z,23.55
2023-04-22T02:35:45.467Z,21.27
2023-04-22T02:38:30.555Z,20.90
2023-04-22T02:41:15.361Z,20.35
2023-04-22T02:44:00.783Z,20.52
2023-04-22T02:46:46.057Z,21.23
2023-04-22T02:49:31.248Z,20.00
2023-04-22T02:52:16.190Z,19.65
2023-04-22T02:55:01.660Z,21.55
2023-04-22T02:57:46.643Z,20.38
2023-04-22T03:00:32.014Z,19.98
2023-04-22T03:03:17.528Z,19.27
2023-04-22T03:06:02.665Z,21.17
2023-04-22T03:08:48.133Z,20.30
2023-04-22T03:11:33.357Z,20.30
2023-04-22T03:14:18.635Z,20.52
2023-04-22T03:17:04.035Z,17.48
2023-04-22T03:19:49.420Z,23.30
2023-04-22T03:22:34.188Z,19.52
2023-04-22T03:25:19.782Z,18.25
2023-04-22T03:28:05.003Z,21.25
2023-04-22T03:30:50.490Z,20.23
2023-04-22T03:33:35.354Z,18.90
2023-04-22T03:36:20.326Z,19.77
2023-04-22T03:39:05.855Z,18.02
2023-04-22T03:41:51.056Z,18.52
2023-04-22T03:44:36.063Z,19.88
2023-04-22T03:47:21.376Z,22.63
2023-04-22T03:50:07.324Z,20.70
2023-04-22T03:52:52.815Z,19.52
2023-04-22T03:55:38.061Z,20.65
2023-04-22T03:58:23.313Z,21.63
2023-04-22T04:01:08.837Z,19.73
2023-04-22T04:03:54.416Z,18.20
2023-04-22T04:06:39.666Z,20.40
2023-04-22T04:09:24.655Z,18.40
2023-04-22T04:12:09.855Z,17.95
2023-04-22T04:14:55.086Z,18.52
2023-04-22T04:17:40.222Z,18.15
2023-04-22T04:20:25.543Z,18.95
2023-04-22T04:23:10.888Z,18.55
2023-04-22T04:25:56.321Z,17.58
2023-04-22T04:28:41.643Z,22.92
2023-04-22T04:31:28.466Z,18.77
2023-04-22T04:34:13.758Z,18.40
2023-04-22T04:36:59.249Z,20.30
2023-04-22T04:39:44.715Z,19.10
2023-04-22T04:42:30.013Z,21.23
2023-04-22T04:45:15.347Z,21.45
2023-04-22T04:48:00.646Z,17.45
2023-04-22T04:50:46.291Z,21.60
2023-04-22T04:53:32.446Z,19.33
2023-04-22T04:56:17.760Z,17.23
2023-04-22T04:59:03.162Z,19.92
2023-04-22T05:01:48.567Z,18.05
2023-04-22T05:04:33.820Z,21.52
2023-04-22T05:07:19.242Z,21.77
2023-04-22T05:10:04.883Z,23.70
2023-04-22T05:12:50.378Z,17.98
2023-04-22T05:15:35.768Z,19.45
2023-04-22T05:18:21.752Z,18.08
2023-04-22T05:21:07.186Z,21.30
2023-04-22T05:23:52.302Z,18.13
2023-04-22T05:26:37.806Z,19.83
2023-04-22T05:29:22.913Z,18.38
2023-04-22T05:32:08.562Z,18.58
2023-04-22T05:34:53.799Z,22.30
2023-04-22T05:37:39.223Z,16.58
2023-04-22T05:40:24.462Z,18.45
2023-04-22T05:43:09.747Z,19.45
2023-04-22T05:45:54.722Z,17.02
2023-04-22T05:48:40.048Z,17.25
2023-04-22T05:51:25.439Z,17.50
2023-04-22T05:54:10.792Z,17.73
2023-04-22T05:56:56.467Z,18.40
2023-04-22T05:59:42.260Z,17.67
2023-04-22T06:02:27.898Z,17.25
2023-04-22T06:05:13.296Z,19.30
2023-04-22T06:07:58.491Z,19.15
2023-04-22T06:10:43.765Z,18.77
2023-04-22T06:13:29.189Z,15.88
2023-04-22T06:16:14.681Z,16.65
2023-04-22T06:19:00.106Z,16.02
2023-04-22T06:21:45.354Z,14.07
2023-04-22T06:24:30.842Z,17.63
2023-04-22T06:27:16.156Z,17.90
2023-04-22T06:30:01.598Z,16.50
2023-04-22T06:32:47.243Z,15.02
2023-04-22T06:35:32.549Z,14.90
2023-04-22T06:38:17.794Z,15.50
2023-04-22T06:41:03.078Z,14.73
2023-04-22T06:43:48.434Z,13.18
2023-04-22T06:46:33.915Z,15.57
2023-04-22T06:49:19.323Z,16.58
2023-04-22T06:52:05.695Z,14.90
2023-04-22T06:54:51.056Z,15.77
2023-04-22T06:57:36.457Z,14.45
2023-04-22T07:00:21.724Z,13.02
2023-04-22T07:03:07.025Z,14.50
2023-04-22T07:05:52.327Z,14.52
2023-04-22T07:08:37.545Z,13.80
2023-04-22T07:11:23.049Z,14.30
2023-04-22T07:14:08.205Z,14.60
2023-04-22T07:16:53.937Z,15.55
2023-04-22T07:19:39.574Z,16.02
2023-04-22T07:22:24.811Z,14.23
2023-04-22T07:25:10.164Z,16.48
2023-04-22T07:27:55.269Z,15.13
2023-04-22T07:30:40.652Z,13.90
2023-04-22T07:33:25.987Z,13.88
2023-04-22T07:36:11.409Z,15.57
2023-04-22T07:38:56.415Z,13.68
2023-04-22T07:41:41.698Z,14.77
2023-04-22T07:44:27.120Z,13.35
2023-04-22T07:47:12.711Z,14.18
2023-04-22T07:49:57.895Z,14.10
2023-04-22T07:52:43.375Z,13.02
2023-04-22T07:55:28.750Z,14.55
2023-04-22T07:58:14.224Z,14.02
2023-04-22T08:00:59.664Z,24.38
2023-04-22T08:03:45.248Z,23.75
2023-04-22T08:06:30.632Z,15.60
2023-04-22T08:09:16.047Z,11.60
2023-04-22T08:12:01.557Z,11.50
2023-04-22T08:14:46.540Z,14.75
2023-04-22T08:17:32.208Z,12.38
2023-04-22T08:20:21.769Z,11.52
2023-04-22T08:23:07.082Z,10.27
2023-04-22T08:25:52.473Z,10.80
2023-04-22T08:28:38.210Z,12.10
2023-04-22T08:31:23.436Z,11.75
2023-04-22T08:34:13.487Z,10.35
2023-04-22T08:36:58.992Z,12.80
2023-04-22T08:39:44.104Z,10.73
2023-04-22T08:42:29.623Z,9.95
2023-04-22T08:45:15.521Z,9.90
2023-04-22T08:48:02.479Z,9.95
2023-04-22T08:50:48.422Z,10.45
2023-04-22T08:53:34.070Z,10.60
2023-04-22T08:56:20.548Z,8.02
2023-04-22T08:59:05.733Z,11.30
2023-04-22T09:01:53.090Z,9.60
2023-04-22T09:04:38.420Z,9.25
2023-04-22T09:07:26.784Z,11.23
2023-04-22T09:10:11.861Z,9.77
2023-04-22T09:12:58.878Z,10.35
2023-04-22T09:15:44.215Z,11.40
2023-04-22T09:18:29.658Z,9.43
2023-04-22T09:21:15.034Z,9.48
2023-04-22T09:24:00.524Z,8.30
2023-04-22T09:26:46.257Z,7.13
2023-04-22T09:29:31.610Z,10.02
2023-04-22T09:32:17.612Z,9.30
2023-04-22T09:35:02.744Z,9.70
2023-04-22T09:37:51.788Z,7.38
2023-04-22T09:40:40.972Z,11.63
2023-04-22T09:43:26.342Z,9.02
2023-04-22T09:46:11.660Z,9.15
2023-04-22T09:48:58.819Z,8.38
2023-04-22T09:51:44.078Z,9.98
2023-04-22T09:54:29.256Z,9.77
2023-04-22T09:57:14.659Z,6.18
2023-04-22T09:59:59.991Z,6.18
2023-04-22T10:02:45.552Z,8.15
2023-04-22T10:05:31.293Z,12.60
2023-04-22T10:08:17.025Z,9.38
2023-04-22T10:11:02.027Z,8.00
2023-04-22T10:13:47.311Z,7.40
2023-04-22T10:16:34.714Z,7.70
2023-04-22T10:19:21.962Z,4.82
2023-04-22T10:22:10.843Z,7.68
2023-04-22T10:24:56.074Z,8.88
2023-04-22T10:27:41.882Z,5.32
2023-04-22T10:30:29.224Z,8.82
2023-04-22T10:33:20.786Z,7.85
2023-04-22T10:36:12.275Z,6.97
2023-04-22T10:38:57.602Z,9.35
2023-04-22T10:42:08.614Z,7.45
2023-04-22T10:45:00.871Z,8.23
2023-04-22T10:47:46.087Z,8.23
2023-04-22T10:50:32.084Z,7.85
2023-04-22T10:53:36.776Z,8.02
2023-04-22T10:56:21.769Z,7.85
2023-04-22T10:59:16.763Z,7.57
2023-04-22T11:02:03.375Z,5.80
2023-04-22T11:04:49.113Z,7.45
2023-04-22T11:07:34.360Z,6.43
2023-04-22T11:10:32.036Z,7.32
2023-04-22T11:13:21.752Z,7.55
2023-04-22T11:16:08.775Z,7.05
2023-04-22T11:19:11.468Z,10.15
2023-04-22T11:21:56.947Z,7.07
2023-04-22T11:24:54.303Z,7.80
2023-04-22T11:27:41.245Z,8.52
2023-04-22T11:30:28.488Z,6.70
2023-04-22T11:33:15.157Z,6.32
2023-04-22T11:36:00.729Z,6.18
2023-04-22T11:39:08.646Z,7.43
2023-04-22T11:41:53.850Z,6.70
2023-04-22T11:44:39.693Z,6.13
2023-04-22T11:47:25.015Z,5.78
2023-04-22T11:50:11.837Z,8.65
2023-04-22T11:53:15.633Z,9.30
2023-04-22T11:56:02.788Z,6.00
2023-04-22T11:58:47.988Z,5.35
2023-04-22T12:01:33.305Z,6.63
2023-04-22T12:04:21.749Z,7.07
2023-04-22T12:07:07.463Z,8.75
2023-04-22T12:09:56.403Z,8.35
2023-04-22T12:12:41.893Z,9.80
2023-04-22T12:15:27.096Z,11.15
2023-04-22T12:18:12.028Z,7.45
2023-04-22T12:21:06.782Z,6.03
2023-04-22T12:23:54.759Z,6.22
2023-04-22T12:26:39.895Z,6.05
2023-04-22T12:29:33.335Z,6.88
2023-04-22T12:32:20.382Z,6.65
2023-04-22T12:35:05.604Z,4.88
2023-04-22T12:37:52.341Z,6.50
2023-04-22T12:40:37.580Z,8.55
2023-04-22T12:43:22.898Z,8.15
2023-04-22T12:46:09.078Z,8.45
2023-04-22T12:48:54.676Z,6.57
2023-04-22T12:51:40.200Z,7.88
2023-04-22T12:54:25.478Z,8.38
2023-04-22T12:57:10.493Z,8.88
2023-04-22T12:59:55.865Z,7.55
2023-04-22T13:02:42.690Z,7.03
2023-04-22T13:05:28.238Z,5.75
2023-04-22T13:08:13.443Z,7.97
2023-04-22T13:10:58.792Z,6.65
2023-04-22T13:13:44.200Z,6.30
2023-04-22T13:16:29.764Z,9.02
2023-04-22T13:19:14.828Z,8.45
2023-04-22T13:21:59.911Z,8.95
2023-04-22T13:24:45.565Z,7.68
2023-04-22T13:27:30.635Z,7.50
2023-04-22T13:30:16.043Z,10.23
2023-04-22T13:33:01.493Z,6.13
2023-04-22T13:35:46.871Z,8.27
2023-04-22T13:38:32.303Z,9.35
2023-04-22T13:41:17.228Z,9.18
2023-04-22T13:44:02.846Z,7.10
2023-04-22T13:46:48.229Z,5.45
2023-04-22T13:49:33.697Z,10.32
2023-04-22T13:52:19.078Z,9.15
2023-04-22T13:55:04.746Z,6.78
2023-04-22T13:57:51.266Z,9.02
2023-04-22T14:00:36.291Z,9.68
2023-04-22T14:03:22.019Z,9.45
2023-04-22T14:06:07.656Z,7.95
2023-04-22T14:08:52.748Z,8.25
2023-04-22T14:11:37.734Z,7.75
2023-04-22T14:14:23.052Z,10.57
2023-04-22T14:17:08.256Z,7.72
2023-04-22T14:19:53.503Z,7.90
2023-04-22T14:22:38.919Z,6.05
2023-04-22T14:25:24.562Z,8.10
2023-04-22T14:28:10.552Z,8.32
2023-04-22T14:30:55.725Z,10.75
2023-04-22T14:33:40.815Z,6.68
2023-04-22T14:36:25.955Z,5.85
2023-04-22T14:39:10.957Z,7.35
2023-04-22T14:41:56.352Z,9.48
2023-04-22T14:44:42.704Z,9.85
2023-04-22T14:47:28.156Z,8.82
2023-04-22T14:50:13.503Z,9.60
2023-04-22T14:52:58.804Z,7.35
2023-04-22T14:55:43.781Z,6.15
2023-04-22T14:58:29.253Z,10.00
2023-04-22T15:01:14.677Z,8.52
2023-04-22T15:04:00.317Z,9.10
2023-04-22T15:06:45.537Z,8.88
2023-04-22T15:09:31.042Z,12.48
2023-04-22T15:12:17.030Z,7.75
2023-04-22T15:15:02.333Z,8.98
2023-04-22T15:17:47.547Z,11.35
2023-04-22T15:20:32.464Z,8.27
2023-04-22T15:23:17.838Z,9.70
2023-04-22T15:26:02.998Z,9.70
2023-04-22T15:28:48.477Z,7.18
2023-04-22T15:31:33.594Z,8.50
2023-04-22T15:34:18.847Z,8.18
2023-04-22T15:37:04.309Z,9.43
2023-04-22T15:39:49.587Z,10.10
2023-04-22T15:42:34.908Z,9.85
2023-04-22T15:45:20.317Z,8.02
2023-04-22T15:48:05.825Z,7.63
2023-04-22T15:50:51.026Z,9.13
2023-04-22T15:53:36.989Z,9.18
2023-04-22T15:56:22.005Z,8.57
2023-04-22T15:59:06.908Z,8.48
2023-04-22T16:01:52.247Z,11.98
2023-04-22T16:04:37.687Z,9.52
2023-04-22T16:07:22.959Z,9.00
2023-04-22T16:10:09.022Z,8.95
2023-04-22T16:12:53.944Z,11.43
2023-04-22T16:15:38.922Z,9.07
2023-04-22T16:18:24.983Z,10.40
2023-04-22T16:21:10.062Z,10.55
2023-04-22T16:23:55.345Z,10.55
2023-04-22T16:26:40.180Z,9.95
2023-04-22T16:29:25.699Z,12.43
2023-04-22T16:32:11.581Z,11.57
2023-04-22T16:34:57.133Z,9.25
2023-04-22T16:37:43.171Z,8.77
2023-04-22T16:40:28.542Z,13.35
2023-04-22T16:43:13.627Z,9.27
2023-04-22T16:45:59.228Z,10.10
2023-04-22T16:48:44.271Z,11.85
2023-04-22T16:51:29.607Z,8.95
2023-04-22T16:54:14.918Z,12.95
2023-04-22T16:56:59.768Z,11.57
2023-04-22T16:59:45.103Z,9.75
2023-04-22T17:02:30.684Z,10.07
2023-04-22T17:05:15.965Z,9.63
2023-04-22T17:08:01.255Z,10.18
2023-04-22T17:10:47.095Z,11.23
2023-04-22T17:13:32.306Z,10.45
2023-04-22T17:16:18.118Z,12.13
2023-04-22T17:19:03.373Z,9.30
2023-04-22T17:21:48.294Z,11.90
2023-04-22T17:24:33.783Z,11.02
2023-04-22T17:27:19.094Z,11.02
2023-04-22T17:30:04.493Z,10.70
2023-04-22T17:32:49.836Z,11.65
2023-04-22T17:35:35.042Z,10.20
2023-04-22T17:38:20.254Z,10.45
2023-04-22T17:41:05.654Z,10.68
2023-04-22T17:43:51.391Z,10.30
2023-04-22T17:46:36.568Z,10.48
2023-04-22T17:49:21.870Z,12.32
2023-04-22T17:52:07.194Z,11.48
2023-04-22T17:54:52.747Z,10.23
2023-04-22T17:57:38.115Z,12.25
2023-04-22T18:00:36.652Z,11.27
2023-04-22T18:03:22.807Z,11.38
2023-04-22T18:06:08.361Z,10.85
2023-04-22T18:08:55.922Z,10.63
2023-04-22T18:11:41.720Z,12.10
2023-04-22T18:14:26.785Z,11.82
2023-04-22T18:17:11.953Z,11.00
2023-04-22T18:20:09.881Z,11.18
2023-04-22T18:22:59.676Z,12.75
2023-04-22T18:25:45.100Z,11.30
2023-04-22T18:28:30.627Z,10.60
2023-04-22T18:31:16.032Z,10.95
2023-04-22T18:34:01.414Z,12.57
2023-04-22T18:36:46.829Z,12.50
2023-04-22T18:39:32.386Z,11.75
2023-04-22T18:42:18.281Z,10.52
2023-04-22T18:45:04.755Z,11.57
2023-04-22T18:47:50.229Z,12.93
2023-04-22T18:50:35.501Z,12.13
2023-04-22T18:53:21.047Z,11.40
2023-04-22T18:56:06.418Z,10.18
2023-04-22T18:58:51.789Z,12.98
2023-04-22T19:01:37.276Z,12.98
2023-04-22T19:04:22.812Z,12.48
2023-04-22T19:07:13.506Z,11.75
2023-04-22T19:10:02.108Z,13.48
2023-04-22T19:12:47.629Z,10.82
2023-04-22T19:15:32.896Z,13.45
2023-04-22T19:18:18.300Z,11.10
2023-04-22T19:21:03.920Z,14.07
2023-04-22T19:23:49.682Z,12.00
2023-04-22T19:26:35.279Z,11.10
2023-04-22T19:29:20.469Z,11.48
2023-04-22T19:32:05.870Z,26.95
2023-04-22T19:34:50.862Z,17.02
2023-04-22T19:37:36.197Z,13.75
2023-04-22T19:40:21.653Z,13.80
2023-04-22T19:43:07.882Z,14.27
2023-04-22T19:45:52.953Z,12.48
2023-04-22T19:48:38.769Z,12.02
2023-04-22T19:51:24.468Z,13.27
2023-04-22T19:54:11.233Z,13.40
2023-04-22T19:56:56.747Z,14.63
2023-04-22T19:59:43.365Z,13.82
2023-04-22T20:02:28.938Z,14.80
2023-04-22T20:05:14.832Z,14.32
2023-04-22T20:08:00.545Z,14.05
2023-04-22T20:10:47.865Z,13.98
2023-04-22T20:14:16.254Z,15.13
2023-04-22T20:17:16.781Z,16.73
2023-04-22T20:20:13.929Z,14.70
2023-04-22T20:23:01.767Z,15.07
2023-04-22T20:25:47.175Z,14.23
2023-04-22T20:28:44.715Z,14.05
2023-04-22T20:31:30.327Z,14.82
2023-04-22T20:34:15.503Z,13.23
2023-04-22T20:37:01.587Z,13.80
2023-04-22T20:43:32.189Z,13.82
2023-04-22T20:46:17.670Z,16.23
2023-04-22T20:49:03.161Z,14.40
2023-04-22T20:51:48.589Z,14.20
2023-04-22T20:54:35.313Z,13.23
2023-04-22T20:57:21.223Z,14.00
2023-04-22T21:00:07.326Z,14.02
2023-04-22T21:02:53.103Z,14.25
2023-04-22T21:05:38.668Z,16.35
2023-04-22T21:08:25.201Z,15.15
2023-04-22T21:11:10.772Z,15.02
2023-04-22T21:13:55.939Z,14.43
2023-04-22T21:16:43.188Z,13.88
2023-04-22T21:19:35.163Z,13.63
2023-04-22T21:22:21.542Z,15.57
2023-04-22T21:25:07.495Z,14.70
2023-04-22T21:27:53.310Z,15.07
2023-04-22T21:30:39.076Z,16.50
2023-04-22T21:33:24.106Z,14.27
2023-04-22T21:36:09.571Z,13.45
2023-04-22T21:38:54.914Z,13.10
2023-04-22T21:41:40.713Z,14.38
2023-04-22T21:44:26.191Z,13.95
2023-04-22T21:47:11.654Z,13.35
2023-04-22T21:49:57.216Z,13.35
2023-04-22T21:52:42.686Z,15.18
2023-04-22T21:55:27.925Z,12.35
2023-04-22T21:58:13.102Z,13.25
2023-04-22T22:00:58.141Z,12.98
2023-04-22T22:03:43.722Z,12.52
2023-04-22T22:06:30.737Z,14.02
2023-04-22T22:09:16.348Z,13.68
2023-04-22T22:12:01.356Z,13.63
2023-04-22T22:14:46.886Z,15.38
2023-04-22T22:17:32.372Z,13.40
2023-04-22T22:20:17.600Z,18.85
2023-04-22T22:23:03.052Z,14.57
2023-04-22T22:25:49.291Z,18.60
2023-04-22T22:28:34.648Z,17.23
2023-04-22T22:31:20.016Z,17.98
2023-04-22T22:34:05.337Z,19.33
2023-04-22T22:36:50.695Z,20.95
2023-04-22T22:39:36.655Z,24.00
2023-04-22T22:42:22.244Z,22.30
2023-04-22T22:45:08.235Z,24.30
2023-04-22T22:47:53.541Z,24.67
2023-04-22T22:50:38.836Z,27.52
2023-04-22T22:53:24.190Z,25.50
2023-04-22T22:56:09.768Z,26.48
2023-04-22T22:58:55.083Z,29.27
2023-04-22T23:01:40.484Z,29.27
2023-04-22T23:04:27.526Z,31.40
2023-04-22T23:07:13.156Z,30.77
2023-04-22T23:09:58.697Z,31.45
2023-04-22T23:12:44.031Z,32.75
2023-04-22T23:15:29.483Z,34.10
2023-04-22T23:18:16.705Z,39.03
2023-04-22T23:21:02.514Z,38.88
2023-04-22T23:23:49.303Z,40.55
2023-04-22T23:26:34.906Z,38.80
2023-04-22T23:29:20.517Z,40.13
2023-04-22T23:32:07.540Z,38.70
2023-04-22T23:34:53.685Z,38.33
2023-04-22T23:37:42.956Z,39.42
2023-04-22T23:40:27.993Z,41.03
2023-04-22T23:43:13.631Z,43.28
2023-04-22T23:45:58.735Z,42.47
2023-04-22T23:48:43.850Z,45.92
2023-04-22T23:51:28.884Z,45.15
2023-04-22T23:54:14.203Z,45.55
2023-04-22T23:57:00.022Z,46.83
2023-04-22T23:59:45.526Z,47.97
